Terminal Aerodrome Forecast
Issued by NWS

Home | Current Version | Previous Version | Text Only | Print | Product List | Glossary On
Versions: 1 2 3 4 5 6 7 8 9 10 11 12 13 14 15 16 17 18
375
FTAK31 PAJN 220536
TAFAWG
TAF
PAWG 220536Z 2206/2306 10006KT P6SM -SHRA FEW015 BKN035 OVC050
      TEMPO 2206/2208 6SM -SHRA BR FEW015 BKN025 OVC040
     FM222000 11008KT 6SM -RA BR BKN025 OVC040 WS020/15030KT
     FM230000 12010G20KT 6SM -RA BR SCT020 BKN025 OVC040
      WS010/15030KT
      AMD LTD TO CLD VIS AND WIND 2206/2215=

USA.gov is the U.S. government's official web portal to all federal, state and local government web resources and services.